createdAt,value
2022-08-09T00:02:49.994Z,62.81
2022-08-09T00:06:48.782Z,63.38
2022-08-09T00:10:45.794Z,63.42
2022-08-09T00:14:45.349Z,63.56
2022-08-09T00:18:45.065Z,64.14
2022-08-09T00:22:42.411Z,64.19
2022-08-09T00:26:42.021Z,64.92
2022-08-09T00:30:39.033Z,65.71
2022-08-09T00:34:37.747Z,64.88
2022-08-09T00:38:35.508Z,64.93
2022-08-09T00:44:10.922Z,65.42
2022-08-09T00:46:57.500Z,65.71
2022-08-09T00:51:05.160Z,65.79
2022-08-09T00:55:16.741Z,66.48
2022-08-09T00:59:40.750Z,66.50
2022-08-09T01:03:51.931Z,67.36
2022-08-09T01:08:13.716Z,67.88
2022-08-09T01:12:38.598Z,67.78
2022-08-09T01:16:46.978Z,68.83
2022-08-09T01:21:20.939Z,69.00
2022-08-09T01:26:01.093Z,69.16
2022-08-09T01:30:06.861Z,69.69
2022-08-09T01:34:10.715Z,70.01
2022-08-09T01:38:15.829Z,70.50
2022-08-09T01:42:13.867Z,70.70
2022-08-09T01:46:23.845Z,70.33
2022-08-09T01:50:36.605Z,70.13
2022-08-09T01:54:40.698Z,69.87
2022-08-09T01:58:40.239Z,70.57
2022-08-09T02:02:43.953Z,70.90
2022-08-09T02:07:03.176Z,70.87
2022-08-09T02:11:16.976Z,71.31
2022-08-09T02:15:19.583Z,71.21
2022-08-09T02:19:20.776Z,71.68
2022-08-09T02:23:39.874Z,72.12
2022-08-09T02:28:00.660Z,72.61
2022-08-09T02:32:04.677Z,72.43
2022-08-09T02:36:08.027Z,72.56
2022-08-09T02:40:13.121Z,73.37
2022-08-09T02:44:29.578Z,73.71
2022-08-09T02:48:31.709Z,73.79
2022-08-09T02:52:37.521Z,73.86
2022-08-09T02:56:37.990Z,73.98
2022-08-09T03:00:57.598Z,74.04
2022-08-09T03:04:58.937Z,74.61
2022-08-09T03:09:00.331Z,74.69
2022-08-09T03:13:00.413Z,74.50
2022-08-09T03:17:01.834Z,74.92
2022-08-09T03:21:02.974Z,75.06
2022-08-09T03:25:06.210Z,75.10
2022-08-09T03:29:22.985Z,75.61
2022-08-09T03:33:21.837Z,75.45
2022-08-09T03:37:56.662Z,75.66
2022-08-09T03:41:45.772Z,76.89
2022-08-09T03:46:05.423Z,76.51
2022-08-09T03:50:06.841Z,77.49
2022-08-09T03:54:06.262Z,77.39
2022-08-09T03:58:14.862Z,77.95
2022-08-09T04:02:14.236Z,78.33
2022-08-09T04:06:11.852Z,77.53
2022-08-09T04:10:09.301Z,76.54
2022-08-09T04:14:53.002Z,76.64
2022-08-09T04:18:24.911Z,76.58
2022-08-09T04:22:22.269Z,76.82
2022-08-09T04:26:19.277Z,77.32
2022-08-09T04:30:23.363Z,77.36
2022-08-09T04:34:30.481Z,77.22
2022-08-09T04:38:28.728Z,76.85
2022-08-09T04:42:29.773Z,76.94
2022-08-09T04:46:56.814Z,77.00
2022-08-09T04:50:45.067Z,76.74
2022-08-09T04:54:43.584Z,76.98
2022-08-09T04:58:41.004Z,76.59
2022-08-09T05:02:38.967Z,75.94
2022-08-09T05:06:37.455Z,75.90
2022-08-09T05:10:36.647Z,76.88
2022-08-09T05:14:35.190Z,76.77
2022-08-09T05:18:42.044Z,77.53
2022-08-09T05:23:57.910Z,75.76
2022-08-09T05:27:09.888Z,76.01
2022-08-09T05:31:10.574Z,74.92
2022-08-09T05:35:08.269Z,73.90
2022-08-09T05:39:06.187Z,74.04
2022-08-09T05:43:07.672Z,74.44
2022-08-09T05:47:06.392Z,73.63
2022-08-09T05:51:16.944Z,72.71
2022-08-09T05:55:21.840Z,72.28
2022-08-09T05:59:22.045Z,71.46
2022-08-09T06:03:19.936Z,71.05
2022-08-09T06:07:21.294Z,69.45
2022-08-09T06:11:19.059Z,69.28
2022-08-09T06:15:21.557Z,67.82
2022-08-09T06:19:19.007Z,68.29
2022-08-09T06:23:17.987Z,65.56
2022-08-09T06:27:15.680Z,65.15
2022-08-09T06:31:12.953Z,65.16
2022-08-09T06:35:11.187Z,61.94
2022-08-09T06:39:11.661Z,60.46
2022-08-09T06:43:10.409Z,59.82
2022-08-09T06:47:08.512Z,59.30
2022-08-09T06:51:05.759Z,58.25
2022-08-09T06:55:10.083Z,57.41
2022-08-09T07:00:49.734Z,55.34
2022-08-09T07:03:28.357Z,55.84
2022-08-09T07:07:58.998Z,55.42
2022-08-09T07:11:51.992Z,54.58
2022-08-09T07:16:38.720Z,54.20
2022-08-09T07:20:09.727Z,54.06
2022-08-09T07:24:07.277Z,52.76
2022-08-09T07:28:04.779Z,52.87
2022-08-09T07:32:03.738Z,51.95
2022-08-09T07:36:00.762Z,51.38
2022-08-09T07:39:58.195Z,50.76
2022-08-09T07:43:56.710Z,49.52
2022-08-09T07:48:01.678Z,49.18
2022-08-09T07:52:05.013Z,48.76
2022-08-09T07:56:27.136Z,48.71
2022-08-09T08:00:36.117Z,48.41
2022-08-09T08:04:34.291Z,45.24
2022-08-09T08:09:02.145Z,43.04
2022-08-09T08:12:49.445Z,39.91
2022-08-09T08:17:00.829Z,38.93
2022-08-09T08:21:03.515Z,37.01
2022-08-09T08:25:00.509Z,34.74
2022-08-09T08:28:57.490Z,32.96
2022-08-09T08:32:54.825Z,30.48
2022-08-09T08:36:51.834Z,29.71
2022-08-09T08:40:50.167Z,28.71
2022-08-09T08:44:57.740Z,27.84
2022-08-09T08:48:56.021Z,27.73
2022-08-09T08:52:59.485Z,27.25
2022-08-09T08:56:58.606Z,27.17
2022-08-09T09:00:58.261Z,27.38
2022-08-09T09:04:59.347Z,27.37
2022-08-09T09:09:06.812Z,27.25
2022-08-09T09:13:19.456Z,28.66
2022-08-09T09:17:21.134Z,29.09
2022-08-09T09:21:26.043Z,28.40
2022-08-09T09:26:00.868Z,27.55
2022-08-09T09:30:26.230Z,25.80
2022-08-09T09:34:29.945Z,26.58
2022-08-09T09:38:56.923Z,25.03
2022-08-09T09:42:57.897Z,23.95
2022-08-09T09:47:16.435Z,23.36
2022-08-09T09:51:26.213Z,23.92
2022-08-09T09:56:05.253Z,24.57
2022-08-09T10:00:03.378Z,26.10
2022-08-09T10:04:16.265Z,27.41
2022-08-09T10:08:28.468Z,27.17
2022-08-09T10:12:51.782Z,25.50
2022-08-09T10:16:57.813Z,25.35
2022-08-09T10:21:11.083Z,24.73
2022-08-09T10:25:12.293Z,24.38
2022-08-09T10:29:37.557Z,24.08
2022-08-09T10:34:11.161Z,23.63
2022-08-09T10:37:49.181Z,23.28
2022-08-09T10:41:49.583Z,23.65
2022-08-09T10:45:58.499Z,22.22
2022-08-09T10:50:21.089Z,22.50
2022-08-09T10:54:28.181Z,23.68
2022-08-09T10:58:35.340Z,24.18
2022-08-09T11:03:15.364Z,23.78
2022-08-09T11:07:01.534Z,22.92
2022-08-09T11:11:08.797Z,23.36
2022-08-09T11:15:33.839Z,22.97
2022-08-09T11:20:11.775Z,21.14
2022-08-09T11:24:19.599Z,20.58
2022-08-09T11:28:56.284Z,20.34
2022-08-09T11:33:03.295Z,21.08
2022-08-09T11:37:02.589Z,20.24
2022-08-09T11:41:14.248Z,17.54
2022-08-09T11:45:42.785Z,17.34
2022-08-09T11:50:56.658Z,19.06
2022-08-09T11:54:27.500Z,20.12
2022-08-09T11:58:33.631Z,20.25
2022-08-09T12:02:37.069Z,19.17
2022-08-09T12:06:36.303Z,18.01
2022-08-09T12:10:40.037Z,17.28
2022-08-09T12:14:58.920Z,17.71
2022-08-09T12:18:56.236Z,19.21
2022-08-09T12:23:01.255Z,21.12
2022-08-09T12:29:13.894Z,20.17
2022-08-09T12:31:58.202Z,19.84
2022-08-09T12:35:40.805Z,20.50
2022-08-09T12:39:40.160Z,20.83
2022-08-09T12:44:05.529Z,19.73
2022-08-09T12:47:56.263Z,18.24
2022-08-09T12:52:01.058Z,19.67
2022-08-09T12:56:40.009Z,18.80
2022-08-09T13:00:43.976Z,18.92
2022-08-09T13:05:02.636Z,18.92
2022-08-09T13:09:06.135Z,17.91
2022-08-09T13:13:11.280Z,17.90
2022-08-09T13:17:21.919Z,17.17
2022-08-09T13:22:36.525Z,18.58
2022-08-09T13:25:54.598Z,19.07
2022-08-09T13:30:51.141Z,21.16
2022-08-09T13:34:30.386Z,22.73
2022-08-09T13:38:54.189Z,23.28
2022-08-09T13:42:47.410Z,23.51
2022-08-09T13:47:29.520Z,23.51
2022-08-09T13:51:03.681Z,23.00
2022-08-09T13:55:05.121Z,20.31
2022-08-09T13:59:04.472Z,18.86
2022-08-09T14:03:03.664Z,17.90
2022-08-09T14:07:13.715Z,18.07
2022-08-09T14:11:16.087Z,19.32
2022-08-09T14:15:13.493Z,21.21
2022-08-09T14:19:33.563Z,20.68
2022-08-09T14:23:40.360Z,19.42
2022-08-09T14:27:58.454Z,19.96
2022-08-09T14:31:56.394Z,20.73
2022-08-09T14:35:54.565Z,19.06
2022-08-09T14:39:51.607Z,20.02
2022-08-09T14:43:53.730Z,18.95
2022-08-09T14:47:58.407Z,17.41
2022-08-09T14:51:58.609Z,17.25
2022-08-09T14:55:56.218Z,17.34
2022-08-09T14:59:53.287Z,19.27
2022-08-09T15:03:50.357Z,21.60
2022-08-09T15:07:56.014Z,22.34
2022-08-09T15:11:54.099Z,22.16
2022-08-09T15:15:51.899Z,20.19
2022-08-09T15:19:54.538Z,18.84
2022-08-09T15:24:05.959Z,18.15
2022-08-09T15:28:27.149Z,20.37
2022-08-09T15:32:29.813Z,19.38
2022-08-09T15:36:36.638Z,19.45
2022-08-09T15:40:33.782Z,20.34
2022-08-09T15:44:32.687Z,21.55
2022-08-09T15:48:31.926Z,22.70
2022-08-09T15:52:29.310Z,22.15
2022-08-09T15:56:29.335Z,22.73
2022-08-09T16:00:28.232Z,24.02
2022-08-09T16:04:25.307Z,25.44
2022-08-09T16:08:30.803Z,25.05
2022-08-09T16:12:30.803Z,23.46
2022-08-09T16:16:31.417Z,21.96
2022-08-09T16:20:30.551Z,21.04
2022-08-09T16:24:32.795Z,21.64
2022-08-09T16:28:31.116Z,21.38
2022-08-09T16:32:49.542Z,20.75
2022-08-09T16:36:46.854Z,20.19
2022-08-09T16:40:44.014Z,20.18
2022-08-09T16:44:42.959Z,22.13
2022-08-09T16:48:53.274Z,23.04
2022-08-09T16:52:52.978Z,24.19
2022-08-09T16:56:50.819Z,24.77
2022-08-09T17:00:49.662Z,23.72
2022-08-09T17:04:47.031Z,23.84
2022-08-09T17:09:01.715Z,24.36
2022-08-09T17:13:02.821Z,24.83
2022-08-09T17:17:26.400Z,25.48
2022-08-09T17:21:22.179Z,26.36
2022-08-09T17:25:20.467Z,26.23
2022-08-09T17:29:21.030Z,25.40
2022-08-09T17:33:22.308Z,25.39
2022-08-09T17:37:21.139Z,25.65
2022-08-09T17:41:18.327Z,25.93
2022-08-09T17:45:37.367Z,26.21
2022-08-09T17:49:35.382Z,27.32
2022-08-09T17:53:32.367Z,28.10
2022-08-09T17:58:03.713Z,29.70
2022-08-09T18:02:06.770Z,30.58
2022-08-09T18:06:22.385Z,31.08
2022-08-09T18:10:29.443Z,31.81
2022-08-09T18:14:26.673Z,32.23
2022-08-09T18:18:26.025Z,32.85
2022-08-09T18:22:34.006Z,33.41
2022-08-09T18:26:31.932Z,33.93
2022-08-09T18:30:42.420Z,34.15
2022-08-09T18:34:46.134Z,34.61
2022-08-09T18:38:45.328Z,36.12
2022-08-09T18:42:44.790Z,36.71
2022-08-09T18:46:51.472Z,37.02
2022-08-09T18:51:01.104Z,38.15
2022-08-09T18:54:58.183Z,38.61
2022-08-09T18:58:57.175Z,38.72
2022-08-09T19:02:54.557Z,39.12
2022-08-09T19:06:55.062Z,40.08
2022-08-09T19:10:52.051Z,40.42
2022-08-09T19:14:51.714Z,41.17
2022-08-09T19:18:49.126Z,41.93
2022-08-09T19:22:54.203Z,42.44
2022-08-09T19:26:51.970Z,42.84
2022-08-09T19:30:48.981Z,42.71
2022-08-09T19:34:49.718Z,43.10
2022-08-09T19:38:51.835Z,43.03
2022-08-09T19:42:49.757Z,43.32
2022-08-09T19:46:50.857Z,43.85
2022-08-09T19:50:53.980Z,44.45
2022-08-09T19:54:51.428Z,44.87
2022-08-09T19:58:56.496Z,44.70
2022-08-09T20:04:26.524Z,45.35
2022-08-09T20:07:22.792Z,45.38
2022-08-09T20:11:21.465Z,45.65
2022-08-09T20:16:34.221Z,46.32
2022-08-09T20:19:48.353Z,47.57
2022-08-09T20:23:50.806Z,47.69
2022-08-09T20:27:48.945Z,47.29
2022-08-09T20:32:16.962Z,47.21
2022-08-09T20:36:03.343Z,48.10
2022-08-09T20:40:15.255Z,48.46
2022-08-09T20:44:15.270Z,47.98
2022-08-09T20:48:23.343Z,48.43
2022-08-09T20:52:20.726Z,49.40
2022-08-09T20:56:22.119Z,49.14
2022-08-09T21:00:31.357Z,49.40
2022-08-09T21:05:54.620Z,49.42
2022-08-09T21:08:52.757Z,49.94
2022-08-09T21:16:55.088Z,52.03
2022-08-09T21:20:54.474Z,52.71
2022-08-09T21:25:11.771Z,53.39
2022-08-09T21:29:11.645Z,52.95
2022-08-09T21:33:10.915Z,53.04
2022-08-09T21:37:17.946Z,52.61
2022-08-09T21:41:17.106Z,52.87
2022-08-09T21:45:15.782Z,53.85
2022-08-09T21:49:14.531Z,54.53
2022-08-09T21:53:23.894Z,55.26
2022-08-09T21:57:38.815Z,55.49
2022-08-09T22:02:00.564Z,56.38
2022-08-09T22:05:58.721Z,56.24
2022-08-09T22:09:56.383Z,56.76
2022-08-09T22:13:53.843Z,57.03
2022-08-09T22:17:51.198Z,58.19
2022-08-09T22:21:51.039Z,57.70
2022-08-09T22:26:12.171Z,58.07
2022-08-09T22:30:06.019Z,58.41
2022-08-09T22:34:14.405Z,58.88
2022-08-09T22:38:11.633Z,58.73
2022-08-09T22:42:20.965Z,58.60
2022-08-09T22:48:14.689Z,59.11
2022-08-09T22:50:36.671Z,60.06
2022-08-09T22:54:33.902Z,60.06
2022-08-09T22:58:33.585Z,60.40
2022-08-09T23:02:31.845Z,61.23
2022-08-09T23:06:48.852Z,61.40
2022-08-09T23:10:45.831Z,62.06
2022-08-09T23:14:44.720Z,62.52
2022-08-09T23:18:43.167Z,62.35
2022-08-09T23:22:40.416Z,62.46
2022-08-09T23:26:39.161Z,62.77
2022-08-09T23:30:36.175Z,62.90
2022-08-09T23:34:33.189Z,63.58
2022-08-09T23:38:31.494Z,63.77
2022-08-09T23:42:28.580Z,64.07
2022-08-09T23:46:26.744Z,63.81
2022-08-09T23:50:23.775Z,64.28
2022-08-09T23:54:26.488Z,64.96
2022-08-09T23:58:29.591Z,65.37
